Granville, Indiana
Current Conditions -  °F | °C
As of 2:53 AM on Friday 19 Dec 2014 (Local Time) from KMIE Reporting Station
Overcast Overcast  
Wind Chill: -8°   Ceiling: 1600
Heat Index: -4°   Visibility: 8mi
Dew Point: -7°   Wind: 6mph
Humidity: 78%   Direction: 280°W
Pressure: 30.24"   Gusts: NA
Location:  40.3453°N, 85.3353°W
Report Text: KMIE 190753Z AUTO 28005KT 8SM OVC016 M04/M07 A3024 RMK AO2 SLP250 T10391072
Loading
Personal Weather Stations






























Interactive Weather Map New forecast layout! Learn more

10-Day Weather Forecast

Advertisements
Track Severe Weather on mobile